Time;durP1;ratioP1;P1;durP2;ratioP2;P2;SDS_P1;SDS_P2;PMS_P1;PMS_P2;Temp;Humidity;BMP_temperature;BMP_pressure;BME280_temperature;BME280_humidity;BME280_pressure;Samples;Min_cycle;Max_cycle;Signal;HPM_P1;HPM_P2
2023/06/27 00:00:12;;;;;;;5.88;2.17;;;14.80;99.90;;;;;;5069949;28;20400;-83
2023/06/27 00:02:38;;;;;;;7.32;2.50;;;14.70;99.90;;;;;;5069887;28;20040;-83
2023/06/27 00:05:04;;;;;;;10.55;2.88;;;14.70;99.90;;;;;;5069677;28;20032;-83
2023/06/27 00:07:30;;;;;;;8.02;2.63;;;14.70;99.90;;;;;;5070025;28;20047;-83
2023/06/27 00:09:55;;;;;;;10.73;3.90;;;14.60;99.90;;;;;;5052935;28;20045;-83
2023/06/27 00:12:22;;;;;;;11.60;4.03;;;14.60;99.90;;;;;;5069959;28;20040;-83
2023/06/27 00:14:48;;;;;;;10.95;4.32;;;14.70;99.90;;;;;;5069903;28;20401;-83
2023/06/27 00:17:15;;;;;;;6.78;2.65;;;14.70;99.90;;;;;;5069668;28;20051;-83
2023/06/27 00:19:41;;;;;;;9.32;4.00;;;14.60;99.90;;;;;;5069300;28;20044;-83
2023/06/27 00:22:09;;;;;;;7.68;3.72;;;14.60;99.90;;;;;;5069632;28;20441;-83
2023/06/27 00:24:36;;;;;;;11.82;2.95;;;14.60;99.90;;;;;;5069691;28;20040;-83
2023/06/27 00:27:01;;;;;;;10.05;4.05;;;14.50;99.90;;;;;;5052929;28;20128;-83
2023/06/27 00:29:27;;;;;;;9.00;4.13;;;14.40;99.90;;;;;;5069163;28;20127;-83
2023/06/27 00:31:54;;;;;;;10.65;4.63;;;14.40;99.90;;;;;;5052640;28;20488;-83
2023/06/27 00:34:19;;;;;;;9.82;2.80;;;14.40;99.90;;;;;;5069491;28;20033;-83
2023/06/27 00:36:45;;;;;;;5.93;2.80;;;14.30;99.90;;;;;;5052822;28;20456;-83
2023/06/27 00:39:11;;;;;;;7.65;2.80;;;14.20;99.90;;;;;;5069495;28;20039;-83
2023/06/27 00:41:36;;;;;;;11.10;4.93;;;14.20;99.90;;;;;;5069101;28;20063;-83
2023/06/27 00:44:07;;;;;;;10.20;4.72;;;14.20;99.90;;;;;;5069583;28;20462;-83
2023/06/27 00:46:37;;;;;;;10.35;3.70;;;14.20;99.90;;;;;;5052724;28;20479;-83
2023/06/27 00:49:05;;;;;;;9.45;3.53;;;14.10;99.90;;;;;;5069538;28;20048;-83
2023/06/27 00:51:31;;;;;;;9.63;3.22;;;14.10;99.90;;;;;;5069030;28;20036;-82
2023/06/27 00:53:57;;;;;;;8.20;3.08;;;14.10;99.90;;;;;;5055538;28;20070;-83
2023/06/27 00:56:24;;;;;;;9.77;3.42;;;14.00;99.90;;;;;;5072833;28;20041;-83
2023/06/27 00:58:50;;;;;;;7.65;3.33;;;14.00;99.90;;;;;;5073284;28;20226;-83
2023/06/27 01:01:16;;;;;;;10.18;3.20;;;14.00;99.90;;;;;;5056240;28;20501;-83
2023/06/27 01:03:42;;;;;;;8.75;3.42;;;13.90;99.90;;;;;;5072827;28;20048;-83
2023/06/27 01:06:16;;;;;;;9.90;5.10;;;13.90;99.90;;;;;;5072921;28;20047;-83
2023/06/27 01:08:44;;;;;;;8.13;3.22;;;14.00;99.90;;;;;;5072936;28;20178;-83
2023/06/27 01:11:24;;;;;;;12.32;5.80;;;13.90;99.90;;;;;;5072917;28;20098;-83
2023/06/27 01:13:54;;;;;;;8.85;3.30;;;14.00;99.90;;;;;;5055842;28;20041;-83
2023/06/27 01:16:23;;;;;;;8.82;3.65;;;13.80;99.90;;;;;;5056110;28;20036;-83
2023/06/27 01:18:50;;;;;;;10.40;3.75;;;13.80;99.90;;;;;;5072581;28;20036;-83
2023/06/27 01:21:19;;;;;;;8.23;3.35;;;13.70;99.90;;;;;;5071845;28;20076;-83
2023/06/27 01:23:55;;;;;;;10.90;5.50;;;13.70;99.90;;;;;;5056172;28;20048;-83
2023/06/27 01:26:22;;;;;;;10.32;5.72;;;13.70;99.90;;;;;;5072485;28;20049;-83
2023/06/27 01:28:48;;;;;;;8.25;3.28;;;13.70;99.90;;;;;;5055798;28;20071;-83
2023/06/27 01:31:26;;;;;;;11.02;5.05;;;13.70;99.90;;;;;;5072158;28;20102;-83
2023/06/27 01:33:59;;;;;;;7.65;3.03;;;13.70;99.90;;;;;;5072359;28;20127;-83
2023/06/27 01:36:44;;;;;;;9.95;3.33;;;13.60;99.90;;;;;;5072642;28;20402;-83
2023/06/27 01:39:15;;;;;;;7.35;3.20;;;13.50;99.90;;;;;;5072691;28;20043;-83
2023/06/27 01:41:44;;;;;;;10.70;5.20;;;13.50;99.90;;;;;;5072170;28;20033;-83
2023/06/27 01:44:12;;;;;;;12.40;5.47;;;13.50;99.90;;;;;;5072135;28;20131;-83
2023/06/27 01:46:38;;;;;;;9.75;5.32;;;13.60;99.90;;;;;;5072418;28;20733;-83
2023/06/27 01:49:04;;;;;;;8.48;3.22;;;13.60;99.90;;;;;;5072387;28;20072;-83
2023/06/27 01:51:29;;;;;;;8.18;2.95;;;13.60;99.90;;;;;;5071595;28;20044;-83
2023/06/27 01:53:55;;;;;;;9.90;3.35;;;13.50;99.90;;;;;;5071984;28;20092;-83
2023/06/27 01:56:21;;;;;;;10.80;5.47;;;13.50;99.90;;;;;;5072366;28;20044;-82
2023/06/27 01:58:47;;;;;;;10.75;6.00;;;13.60;99.90;;;;;;5071671;28;20110;-83
2023/06/27 02:01:13;;;;;;;13.52;5.65;;;13.60;99.90;;;;;;5071667;28;20494;-83
2023/06/27 02:03:39;;;;;;;7.28;3.40;;;13.60;99.90;;;;;;5070946;28;20040;-83
2023/06/27 02:06:04;;;;;;;9.55;3.63;;;13.50;99.90;;;;;;5054614;28;20071;-83
2023/06/27 02:08:30;;;;;;;8.15;3.47;;;13.40;99.90;;;;;;5073064;28;20045;-83
2023/06/27 02:10:55;;;;;;;9.93;5.88;;;13.40;99.90;;;;;;5071525;28;20060;-83
2023/06/27 02:13:21;;;;;;;9.32;3.20;;;13.40;99.90;;;;;;5071227;28;20063;-83
2023/06/27 02:15:47;;;;;;;7.90;3.15;;;13.40;99.90;;;;;;5055300;28;20044;-83
2023/06/27 02:18:13;;;;;;;11.38;4.45;;;13.30;99.90;;;;;;5071487;28;20490;-83
2023/06/27 02:20:38;;;;;;;12.82;4.10;;;13.30;99.90;;;;;;5071470;28;20128;-83
2023/06/27 02:23:04;;;;;;;10.70;3.92;;;13.20;99.90;;;;;;5054554;28;20409;-83
2023/06/27 02:25:29;;;;;;;10.98;6.60;;;13.20;99.90;;;;;;5071274;28;20036;-83
2023/06/27 02:27:55;;;;;;;12.18;7.32;;;13.30;99.90;;;;;;5071470;28;20067;-83
2023/06/27 02:30:21;;;;;;;10.90;3.70;;;13.30;99.90;;;;;;5071199;28;20055;-82
2023/06/27 02:32:46;;;;;;;11.85;6.90;;;13.30;99.90;;;;;;5071097;28;20083;-83
2023/06/27 02:35:16;;;;;;;12.93;4.43;;;13.30;99.90;;;;;;5071139;28;20040;-83
2023/06/27 02:37:42;;;;;;;10.85;4.35;;;13.30;99.90;;;;;;5071069;28;20115;-83
2023/06/27 02:40:08;;;;;;;8.88;4.00;;;13.20;99.90;;;;;;5071127;28;20036;-83
2023/06/27 02:42:34;;;;;;;11.02;7.55;;;13.20;99.90;;;;;;5070946;28;20044;-83
2023/06/27 02:45:00;;;;;;;11.60;4.80;;;13.30;99.90;;;;;;5071401;28;20123;-83
2023/06/27 02:47:25;;;;;;;13.38;8.38;;;13.30;99.90;;;;;;5071232;28;20040;-83
2023/06/27 02:49:51;;;;;;;10.98;4.82;;;13.30;99.90;;;;;;5070610;28;20633;-83
2023/06/27 02:52:16;;;;;;;13.55;7.97;;;13.30;99.90;;;;;;5070567;28;20098;-83
2023/06/27 02:54:42;;;;;;;9.90;4.47;;;13.30;99.90;;;;;;5054118;28;20053;-83
2023/06/27 02:57:07;;;;;;;10.35;4.75;;;13.30;99.90;;;;;;5070708;28;20047;-83
2023/06/27 02:59:33;;;;;;;10.43;4.03;;;13.20;99.90;;;;;;5054074;28;20040;-83
2023/06/27 03:01:59;;;;;;;13.70;8.10;;;13.20;99.90;;;;;;5070589;28;20032;-83
2023/06/27 03:04:24;;;;;;;10.38;5.45;;;13.20;99.90;;;;;;5070615;28;20115;-83
2023/06/27 03:06:50;;;;;;;10.23;4.25;;;13.10;99.90;;;;;;5070535;28;20040;-83
2023/06/27 03:09:18;;;;;;;11.40;4.78;;;13.10;99.90;;;;;;5071446;28;20089;-83
2023/06/27 03:11:43;;;;;;;13.07;4.95;;;13.00;99.90;;;;;;5069825;28;20048;-83
2023/06/27 03:14:09;;;;;;;9.10;4.60;;;13.00;99.90;;;;;;5070311;28;20078;-83
2023/06/27 03:16:35;;;;;;;10.23;5.07;;;12.90;99.90;;;;;;5070012;28;20146;-83
2023/06/27 03:19:00;;;;;;;9.75;4.65;;;12.90;99.90;;;;;;5053496;28;20520;-83
2023/06/27 03:21:26;;;;;;;9.45;4.32;;;12.90;99.90;;;;;;5069230;28;20253;-82
2023/06/27 03:23:51;;;;;;;9.35;4.28;;;12.80;99.90;;;;;;5070198;28;20437;-83
2023/06/27 03:26:17;;;;;;;11.30;3.92;;;12.80;99.90;;;;;;5069940;28;20040;-83
2023/06/27 03:28:43;;;;;;;13.77;9.05;;;12.70;99.90;;;;;;5070435;28;20507;-83
2023/06/27 03:31:08;;;;;;;9.35;4.68;;;12.70;99.90;;;;;;5069206;28;20574;-82
2023/06/27 03:33:34;;;;;;;9.63;4.50;;;12.70;99.90;;;;;;5069650;28;20043;-83
2023/06/27 03:35:59;;;;;;;11.10;5.03;;;12.70;99.90;;;;;;5069423;28;20448;-83
2023/06/27 03:38:25;;;;;;;9.23;4.40;;;12.70;99.90;;;;;;5069667;28;20078;-83
2023/06/27 03:40:51;;;;;;;14.38;4.82;;;12.60;99.90;;;;;;5053277;28;20374;-82
2023/06/27 03:43:16;;;;;;;11.07;4.22;;;12.60;99.90;;;;;;5053353;28;20048;-83
2023/06/27 03:45:42;;;;;;;10.95;4.68;;;12.60;99.90;;;;;;5070123;28;20042;-83
2023/06/27 03:48:09;;;;;;;12.88;8.15;;;12.60;99.90;;;;;;5069709;28;20048;-83
2023/06/27 03:50:36;;;;;;;11.40;4.78;;;12.70;99.90;;;;;;5069850;28;20505;-83
2023/06/27 03:53:02;;;;;;;11.38;4.93;;;12.70;99.90;;;;;;5052929;28;20045;-82
2023/06/27 03:55:28;;;;;;;15.80;9.30;;;12.70;99.90;;;;;;5070276;28;20041;-83
2023/06/27 03:57:53;;;;;;;12.98;4.82;;;12.80;99.90;;;;;;5069878;28;20043;-83
2023/06/27 04:00:19;;;;;;;12.38;8.75;;;12.80;99.90;;;;;;5069609;28;20033;-83
2023/06/27 04:02:45;;;;;;;14.98;5.10;;;12.90;99.90;;;;;;5069444;28;20527;-83
2023/06/27 04:05:10;;;;;;;14.63;9.70;;;12.90;99.90;;;;;;5053388;28;20036;-83
2023/06/27 04:07:36;;;;;;;14.00;9.02;;;12.90;99.90;;;;;;5069734;28;20494;-83
2023/06/27 04:10:02;;;;;;;11.60;5.20;;;13.00;99.90;;;;;;5069096;28;20048;-83
2023/06/27 04:12:28;;;;;;;9.90;4.57;;;13.00;99.90;;;;;;5052592;28;20055;-83
2023/06/27 04:14:53;;;;;;;11.65;4.70;;;12.90;99.90;;;;;;5069703;28;20465;-83
2023/06/27 04:17:19;;;;;;;12.68;5.07;;;12.90;99.90;;;;;;5052604;28;20557;-83
2023/06/27 04:19:44;;;;;;;14.18;4.70;;;12.90;99.90;;;;;;5052356;28;20044;-83
2023/06/27 04:22:10;;;;;;;9.77;4.68;;;13.00;99.90;;;;;;5052516;28;20044;-83
2023/06/27 04:24:36;;;;;;;15.75;9.80;;;13.00;99.90;;;;;;5069269;28;20028;-83
2023/06/27 04:27:01;;;;;;;13.55;5.40;;;13.10;99.90;;;;;;5069615;28;20058;-83
2023/06/27 04:29:27;;;;;;;10.60;5.43;;;13.10;99.90;;;;;;5073301;28;20032;-83
2023/06/27 04:31:52;;;;;;;11.70;5.20;;;13.10;99.90;;;;;;5057072;28;20033;-83
2023/06/27 04:34:18;;;;;;;11.82;6.20;;;13.20;99.90;;;;;;5073347;28;20415;-83
2023/06/27 04:36:43;;;;;;;15.88;10.52;;;13.20;99.90;;;;;;5073109;28;20410;-83
2023/06/27 04:39:09;;;;;;;14.32;5.68;;;13.30;99.90;;;;;;5056412;28;20410;-83
2023/06/27 04:41:35;;;;;;;11.93;5.45;;;13.40;99.90;;;;;;5055914;28;20157;-82
2023/06/27 04:44:00;;;;;;;18.67;11.38;;;13.40;99.90;;;;;;5073113;28;20032;-82
2023/06/27 04:46:28;;;;;;;13.10;5.85;;;13.50;99.90;;;;;;5056587;28;20058;-82
2023/06/27 04:48:58;;;;;;;12.70;6.07;;;13.60;99.90;;;;;;5073039;28;20048;-83
2023/06/27 04:51:28;;;;;;;16.05;7.65;;;13.60;99.90;;;;;;5055824;28;20130;-83
2023/06/27 04:53:54;;;;;;;13.75;5.85;;;13.70;99.90;;;;;;5055976;28;20387;-83
2023/06/27 04:56:20;;;;;;;14.07;6.70;;;13.80;99.90;;;;;;5056214;28;20040;-83
2023/06/27 04:58:45;;;;;;;15.88;6.80;;;13.90;99.90;;;;;;5072584;28;20044;-83
2023/06/27 05:01:11;;;;;;;12.80;6.75;;;13.90;99.90;;;;;;5055542;28;20029;-83
2023/06/27 05:03:41;;;;;;;17.23;8.18;;;14.00;99.90;;;;;;5072390;28;20072;-82
2023/06/27 05:06:07;;;;;;;22.08;13.43;;;14.10;99.90;;;;;;5056251;28;20171;-82
2023/06/27 05:08:35;;;;;;;19.38;8.40;;;14.20;99.90;;;;;;5056161;28;20494;-83
2023/06/27 05:11:00;;;;;;;19.23;8.00;;;14.30;99.90;;;;;;5072745;28;20047;-82
2023/06/27 05:13:26;;;;;;;14.38;7.88;;;14.30;99.90;;;;;;5055315;28;20486;-83
2023/06/27 05:15:51;;;;;;;18.73;13.48;;;14.40;99.90;;;;;;5072978;28;20072;-82
2023/06/27 05:18:17;;;;;;;19.23;14.52;;;14.50;99.90;;;;;;5056057;28;20509;-82
2023/06/27 05:20:44;;;;;;;14.15;7.97;;;14.60;99.90;;;;;;5071814;28;20043;-83
2023/06/27 05:23:09;;;;;;;20.90;9.77;;;14.70;99.90;;;;;;5055397;28;20044;-83
2023/06/27 05:25:35;;;;;;;21.00;14.10;;;14.80;99.90;;;;;;5072359;28;20071;-83
2023/06/27 05:28:01;;;;;;;18.08;7.43;;;14.90;99.90;;;;;;5072429;28;20040;-83
2023/06/27 05:30:28;;;;;;;15.77;9.50;;;14.90;99.90;;;;;;5072221;28;20048;-83
2023/06/27 05:32:54;;;;;;;17.77;14.00;;;15.00;99.90;;;;;;5072356;28;20043;-83
2023/06/27 05:35:20;;;;;;;18.27;13.75;;;15.10;99.90;;;;;;5055915;28;20044;-83
2023/06/27 05:37:46;;;;;;;20.85;9.82;;;15.30;99.90;;;;;;5072097;28;20067;-84
2023/06/27 05:40:12;;;;;;;17.98;13.93;;;15.30;99.90;;;;;;5055132;28;20078;-83
2023/06/27 05:42:38;;;;;;;18.13;9.50;;;15.40;99.90;;;;;;5073235;28;20128;-83
2023/06/27 05:45:04;;;;;;;18.15;13.55;;;15.50;99.90;;;;;;5072237;28;20130;-83
2023/06/27 05:47:29;;;;;;;17.70;12.57;;;15.70;99.90;;;;;;5072451;28;20619;-83
2023/06/27 05:49:55;;;;;;;18.83;12.70;;;15.80;99.90;;;;;;5055026;28;20540;-84
2023/06/27 05:52:21;;;;;;;17.20;12.30;;;15.90;99.90;;;;;;5055116;28;20032;-83
2023/06/27 05:54:46;;;;;;;17.83;11.95;;;16.00;99.90;;;;;;5055407;28;20036;-84
2023/06/27 05:57:12;;;;;;;18.90;11.70;;;16.20;99.90;;;;;;5071860;28;20036;-84
2023/06/27 05:59:37;;;;;;;12.90;7.20;;;16.30;99.90;;;;;;5071067;28;20045;-84
2023/06/27 06:02:03;;;;;;;16.20;10.20;;;16.40;99.90;;;;;;5072075;28;20045;-84
2023/06/27 06:04:30;;;;;;;17.92;10.52;;;16.50;99.90;;;;;;5055389;28;20029;-83
2023/06/27 06:06:55;;;;;;;11.50;6.50;;;16.60;99.90;;;;;;5054838;28;20047;-83
2023/06/27 06:09:21;;;;;;;13.90;9.02;;;16.70;99.90;;;;;;5071701;28;20040;-83
2023/06/27 06:11:46;;;;;;;15.93;7.90;;;16.80;99.90;;;;;;5071846;28;20086;-83
2023/06/27 06:14:12;;;;;;;13.88;8.05;;;16.90;99.90;;;;;;5054446;28;20557;-83
2023/06/27 06:16:38;;;;;;;15.20;7.82;;;17.00;99.90;;;;;;5071741;28;20048;-84
2023/06/27 06:19:03;;;;;;;10.70;4.82;;;17.10;99.90;;;;;;5071236;28;20433;-83
2023/06/27 06:21:30;;;;;;;13.07;6.03;;;17.20;99.90;;;;;;5070579;28;20047;-84
2023/06/27 06:23:57;;;;;;;12.93;5.50;;;17.30;99.90;;;;;;5071462;28;20040;-84
2023/06/27 06:26:22;;;;;;;11.77;4.80;;;17.50;99.90;;;;;;5071749;28;20078;-84
2023/06/27 06:28:48;;;;;;;12.13;4.22;;;17.60;99.90;;;;;;5071649;28;20080;-84
2023/06/27 06:31:18;;;;;;;12.38;4.07;;;17.70;99.90;;;;;;5071251;28;20044;-84
2023/06/27 06:33:44;;;;;;;10.70;4.03;;;17.80;99.90;;;;;;5054575;28;20037;-85
2023/06/27 06:36:10;;;;;;;8.40;2.97;;;17.90;99.90;;;;;;5054094;28;20032;-84
2023/06/27 06:38:36;;;;;;;10.07;4.03;;;17.90;99.90;;;;;;5071017;28;20040;-84
2023/06/27 06:41:02;;;;;;;12.05;2.92;;;18.10;99.90;;;;;;5070876;28;20424;-84
2023/06/27 06:43:28;;;;;;;9.27;3.03;;;18.20;99.90;;;;;;5070773;28;20421;-84
2023/06/27 06:45:54;;;;;;;9.27;2.80;;;18.30;99.90;;;;;;5070931;28;20054;-84
2023/06/27 06:48:20;;;;;;;10.32;2.90;;;18.40;99.90;;;;;;5070356;28;20044;-84
2023/06/27 06:50:46;;;;;;;9.93;2.58;;;18.50;99.90;;;;;;5052791;28;20087;-84
2023/06/27 06:53:12;;;;;;;9.25;2.95;;;18.60;99.90;;;;;;5070127;28;20047;-84
2023/06/27 06:55:37;;;;;;;9.50;2.65;;;18.60;99.90;;;;;;5071785;28;20036;-84
2023/06/27 06:58:04;;;;;;;7.60;2.40;;;18.70;99.90;;;;;;5070410;28;20086;-84
2023/06/27 07:00:30;;;;;;;7.63;2.10;;;18.80;99.90;;;;;;5049421;28;20043;-83
2023/06/27 07:02:55;;;;;;;7.43;2.05;;;18.90;99.90;;;;;;5050709;28;20045;-84
2023/06/27 07:05:21;;;;;;;6.72;1.80;;;19.10;99.90;;;;;;5050790;28;20099;-84
2023/06/27 07:07:46;;;;;;;8.60;2.28;;;19.20;99.90;;;;;;5050651;28;20495;-84
2023/06/27 07:10:12;;;;;;;7.60;1.88;;;19.30;99.90;;;;;;5050552;28;20174;-84
2023/06/27 07:12:38;;;;;;;7.82;1.80;;;19.30;99.90;;;;;;5050522;28;20510;-85
2023/06/27 07:15:04;;;;;;;7.15;2.00;;;19.40;99.90;;;;;;5049192;28;20107;-84
2023/06/27 07:17:29;;;;;;;9.10;2.50;;;19.40;99.90;;;;;;5049735;28;20045;-84
2023/06/27 07:19:56;;;;;;;7.22;1.70;;;19.60;99.90;;;;;;5049306;28;20032;-84
2023/06/27 07:22:21;;;;;;;6.15;1.58;;;19.60;99.90;;;;;;5049727;28;20124;-84
2023/06/27 07:24:47;;;;;;;9.15;1.65;;;19.60;98.50;;;;;;5049082;28;20075;-84
2023/06/27 07:27:13;;;;;;;7.45;2.05;;;19.60;96.90;;;;;;5049253;28;20068;-84
2023/06/27 07:29:39;;;;;;;8.68;1.85;;;19.60;96.30;;;;;;5048626;28;20044;-84
2023/06/27 07:32:05;;;;;;;7.75;1.90;;;19.60;97.30;;;;;;5062898;28;20029;-85
2023/06/27 07:34:32;;;;;;;7.38;1.75;;;19.70;95.90;;;;;;5069163;28;20397;-84
2023/06/27 07:36:57;;;;;;;5.95;1.80;;;19.80;95.20;;;;;;5049265;28;20402;-84
2023/06/27 07:39:23;;;;;;;5.95;1.40;;;19.90;94.80;;;;;;5068464;28;20497;-84
2023/06/27 07:41:49;;;;;;;8.15;1.63;;;20.00;95.10;;;;;;5052408;28;20037;-84
2023/06/27 07:44:15;;;;;;;5.15;1.50;;;20.10;93.30;;;;;;5068233;28;20111;-84
2023/06/27 07:46:41;;;;;;;8.50;1.92;;;20.20;92.00;;;;;;5068415;28;20143;-84
2023/06/27 07:49:07;;;;;;;6.53;1.60;;;20.30;92.60;;;;;;5051818;28;20517;-84
2023/06/27 07:51:33;;;;;;;6.20;1.90;;;20.50;91.80;;;;;;5051893;28;20048;-84
2023/06/27 07:54:00;;;;;;;7.72;1.50;;;20.60;90.90;;;;;;5068363;28;20050;-85
2023/06/27 07:56:26;;;;;;;7.47;1.70;;;20.60;90.90;;;;;;5068625;28;20398;-84
2023/06/27 07:58:52;;;;;;;7.68;1.83;;;20.60;90.00;;;;;;5069209;28;20500;-84
2023/06/27 08:01:18;;;;;;;7.00;1.75;;;20.50;88.80;;;;;;5068041;28;20032;-84
2023/06/27 08:03:43;;;;;;;6.15;1.60;;;20.50;87.70;;;;;;5068108;28;20111;-84
2023/06/27 08:06:09;;;;;;;8.93;1.83;;;20.50;88.00;;;;;;5068874;28;20395;-84
2023/06/27 08:08:36;;;;;;;5.22;1.40;;;20.60;86.40;;;;;;5068035;28;20079;-84
2023/06/27 08:11:02;;;;;;;6.57;1.50;;;20.50;85.20;;;;;;5068356;28;20051;-84
2023/06/27 08:13:28;;;;;;;6.25;1.58;;;20.50;85.90;;;;;;5013183;28;1116115;-85
2023/06/27 08:15:53;;;;;;;7.05;1.50;;;20.50;84.50;;;;;;5069556;28;20055;-84
2023/06/27 08:18:20;;;;;;;5.63;1.35;;;20.40;83.50;;;;;;5052858;28;20045;-84
2023/06/27 08:20:45;;;;;;;8.45;1.52;;;20.40;84.00;;;;;;5086175;28;20036;-84
2023/06/27 08:23:11;;;;;;;6.43;1.50;;;20.40;84.30;;;;;;5069124;28;20166;-84
2023/06/27 08:25:37;;;;;;;6.68;1.55;;;20.40;84.10;;;;;;5069601;28;20033;-84
2023/06/27 08:28:02;;;;;;;8.85;1.50;;;20.40;84.10;;;;;;5069643;28;20507;-84
2023/06/27 08:30:28;;;;;;;8.20;1.70;;;20.50;85.00;;;;;;5086013;28;20037;-84
2023/06/27 08:32:55;;;;;;;8.90;1.63;;;20.60;85.00;;;;;;5052649;28;20517;-84
2023/06/27 08:35:21;;;;;;;6.60;1.40;;;20.60;84.30;;;;;;5085983;28;20041;-84
2023/06/27 08:37:47;;;;;;;9.60;1.80;;;20.70;82.90;;;;;;5069335;28;20090;-84
2023/06/27 08:40:26;;;;;;;9.52;1.70;;;20.80;82.30;;;;;;5069052;28;20525;-84
2023/06/27 08:42:51;;;;;;;8.60;1.73;;;20.80;82.20;;;;;;5085326;28;20048;-84
2023/06/27 08:45:17;;;;;;;8.68;2.03;;;20.90;83.70;;;;;;5052792;28;20036;-84
2023/06/27 08:47:45;;;;;;;8.20;1.63;;;21.00;83.60;;;;;;5052229;28;20044;-84
2023/06/27 08:50:13;;;;;;;10.98;1.90;;;21.20;82.60;;;;;;5051968;28;20032;-84
2023/06/27 08:52:44;;;;;;;8.75;1.85;;;21.40;82.10;;;;;;5049101;28;20041;-84
2023/06/27 08:55:42;;;;;;;10.68;2.05;;;21.50;80.00;;;;;;5034374;28;20429;-84
2023/06/27 08:58:14;;;;;;;6.25;1.60;;;21.60;77.90;;;;;;5052521;28;20041;-84
2023/06/27 09:00:39;;;;;;;8.65;1.65;;;21.50;75.50;;;;;;5052423;28;20436;-85
2023/06/27 09:03:06;;;;;;;9.82;1.52;;;21.60;74.80;;;;;;5069163;28;20042;-84
2023/06/27 09:05:35;;;;;;;6.03;1.42;;;21.60;74.20;;;;;;5069013;28;20094;-84
2023/06/27 09:08:01;;;;;;;4.50;1.20;;;21.70;73.50;;;;;;5052146;28;20090;-85
2023/06/27 09:10:28;;;;;;;5.28;1.20;;;21.70;72.30;;;;;;5068762;28;20040;-85
2023/06/27 09:12:54;;;;;;;7.15;1.33;;;21.70;71.10;;;;;;5068941;28;20044;-85
2023/06/27 09:15:20;;;;;;;6.53;1.27;;;21.80;71.60;;;;;;5072312;28;20115;-85
2023/06/27 09:17:46;;;;;;;5.32;1.48;;;21.90;71.40;;;;;;5072281;28;20078;-85
2023/06/27 09:20:17;;;;;;;7.68;1.33;;;21.90;69.70;;;;;;5071769;28;20036;-85
2023/06/27 09:22:43;;;;;;;8.05;1.45;;;21.80;70.70;;;;;;5055167;28;20036;-85
2023/06/27 09:25:09;;;;;;;8.40;1.50;;;21.80;70.10;;;;;;5055649;28;20059;-85
2023/06/27 09:27:36;;;;;;;7.28;1.40;;;21.80;70.80;;;;;;5072458;28;20056;-85
2023/06/27 09:30:02;;;;;;;7.10;1.40;;;21.90;69.80;;;;;;5055441;28;20644;-85
2023/06/27 09:32:28;;;;;;;7.10;1.40;;;21.80;70.50;;;;;;5072256;28;20122;-85
2023/06/27 09:34:55;;;;;;;5.10;1.17;;;21.80;69.10;;;;;;5072476;28;20070;-85
2023/06/27 09:37:20;;;;;;;7.43;1.50;;;21.80;67.50;;;;;;5073187;28;20037;-85
2023/06/27 09:39:46;;;;;;;4.50;1.38;;;21.70;68.80;;;;;;5070684;28;20039;-85
2023/06/27 09:42:12;;;;;;;8.27;1.50;;;21.70;69.10;;;;;;5055044;28;20616;-85
2023/06/27 09:44:37;;;;;;;7.63;1.27;;;21.80;70.90;;;;;;5072077;28;20135;-85
2023/06/27 09:47:09;;;;;;;7.43;1.60;;;21.80;70.50;;;;;;5072278;28;20041;-85
2023/06/27 09:49:35;;;;;;;5.43;1.10;;;21.90;70.00;;;;;;5071712;28;20049;-85
2023/06/27 09:52:04;;;;;;;5.90;1.27;;;21.90;68.60;;;;;;5071934;28;20047;-85
2023/06/27 09:54:29;;;;;;;5.97;1.48;;;22.00;70.50;;;;;;5071578;28;20040;-85
2023/06/27 09:56:56;;;;;;;6.65;1.30;;;22.10;71.30;;;;;;5071941;28;20040;-85
2023/06/27 09:59:23;;;;;;;9.13;1.50;;;22.20;70.50;;;;;;5072031;28;20102;-85
2023/06/27 10:01:52;;;;;;;5.65;1.38;;;22.00;70.70;;;;;;5070493;28;20076;-85
2023/06/27 10:04:18;;;;;;;5.55;1.35;;;22.00;69.90;;;;;;5055305;28;20036;-85
2023/06/27 10:06:44;;;;;;;8.68;1.50;;;21.90;68.90;;;;;;5073163;28;20217;-85
2023/06/27 10:09:09;;;;;;;8.80;1.70;;;21.90;69.90;;;;;;5055158;28;20106;-85
2023/06/27 10:11:37;;;;;;;6.55;1.40;;;22.00;70.40;;;;;;5071329;28;20039;-85
2023/06/27 10:14:03;;;;;;;5.95;1.42;;;21.90;70.70;;;;;;5071598;28;20094;-85
2023/06/27 10:16:30;;;;;;;7.35;1.60;;;21.80;70.50;;;;;;5054914;28;20409;-85
2023/06/27 10:18:55;;;;;;;8.65;1.42;;;21.80;71.00;;;;;;5071636;28;20067;-85
2023/06/27 10:21:24;;;;;;;6.90;1.40;;;21.90;69.00;;;;;;5071571;28;20071;-85
2023/06/27 10:23:52;;;;;;;7.13;1.50;;;21.90;68.20;;;;;;5071503;28;20048;-85
2023/06/27 10:26:19;;;;;;;7.63;1.80;;;21.90;69.80;;;;;;5070495;28;20402;-85
2023/06/27 10:28:51;;;;;;;7.05;1.60;;;22.00;71.30;;;;;;5071668;28;20563;-84
2023/06/27 10:31:49;;;;;;;7.60;1.60;;;22.00;69.80;;;;;;5071142;28;20123;-85
2023/06/27 10:34:20;;;;;;;6.60;1.30;;;21.90;69.00;;;;;;5071147;28;20037;-85
2023/06/27 10:36:54;;;;;;;6.80;1.48;;;21.90;71.10;;;;;;5071336;28;20552;-85
2023/06/27 10:39:33;;;;;;;8.25;1.70;;;22.10;71.70;;;;;;5071319;28;20505;-85
2023/06/27 10:42:18;;;;;;;7.88;1.65;;;22.20;70.50;;;;;;5071181;28;20119;-85
2023/06/27 10:45:15;;;;;;;9.68;1.38;;;22.40;69.20;;;;;;5070730;28;20051;-85
2023/06/27 10:47:42;;;;;;;6.13;1.30;;;22.50;67.80;;;;;;5071406;28;20091;-85
2023/06/27 10:50:19;;;;;;;6.82;1.45;;;22.50;68.00;;;;;;5053495;28;20040;-85
2023/06/27 10:53:04;;;;;;;9.40;1.48;;;22.60;69.00;;;;;;5068948;28;20044;-85
2023/06/27 10:55:31;;;;;;;6.10;1.20;;;22.60;67.50;;;;;;5054555;28;20440;-85
2023/06/27 10:58:14;;;;;;;5.93;1.27;;;22.70;69.50;;;;;;5070817;28;20040;-85
2023/06/27 11:00:44;;;;;;;8.05;1.50;;;22.80;70.10;;;;;;5070591;28;20450;-85
2023/06/27 11:03:10;;;;;;;9.13;1.52;;;23.00;70.80;;;;;;5050812;28;20033;-85
2023/06/27 11:05:51;;;;;;;6.30;1.38;;;23.10;69.60;;;;;;5070349;28;20044;-85
2023/06/27 11:08:18;;;;;;;10.52;1.92;;;23.30;70.10;;;;;;5068646;28;20032;-85
2023/06/27 11:11:03;;;;;;;8.48;1.42;;;23.40;68.60;;;;;;5070222;28;20036;-85
2023/06/27 11:13:32;;;;;;;6.75;1.42;;;23.60;69.10;;;;;;5069501;28;20051;-85
2023/06/27 11:15:58;;;;;;;7.97;1.50;;;23.70;67.90;;;;;;5051795;28;20460;-85
2023/06/27 11:18:27;;;;;;;6.75;1.40;;;23.60;67.40;;;;;;5053007;28;20046;-85
2023/06/27 11:20:54;;;;;;;9.27;1.50;;;23.50;67.50;;;;;;5066523;28;20090;-85
2023/06/27 11:23:22;;;;;;;6.25;1.20;;;23.40;67.20;;;;;;5069107;28;20041;-85
2023/06/27 11:25:48;;;;;;;6.30;1.40;;;23.20;66.80;;;;;;5069123;28;20036;-85
2023/06/27 11:28:17;;;;;;;8.98;1.70;;;23.10;67.70;;;;;;5069222;28;20115;-85
2023/06/27 11:30:44;;;;;;;5.72;1.30;;;23.10;67.10;;;;;;5069123;28;20051;-85
2023/06/27 11:33:13;;;;;;;8.77;1.70;;;23.10;67.50;;;;;;5068999;28;20549;-85
2023/06/27 11:35:40;;;;;;;8.32;1.60;;;22.90;67.20;;;;;;5051366;28;20043;-85
2023/06/27 11:38:07;;;;;;;6.25;1.30;;;22.90;67.80;;;;;;5069746;28;20394;-85
2023/06/27 11:40:33;;;;;;;9.95;1.65;;;22.90;68.00;;;;;;5050345;28;20071;-85
2023/06/27 11:43:03;;;;;;;10.05;1.50;;;22.90;67.50;;;;;;5052968;28;20466;-85
2023/06/27 11:45:31;;;;;;;6.53;1.50;;;22.80;67.30;;;;;;5069715;28;20461;-86
2023/06/27 11:48:05;;;;;;;6.72;1.30;;;22.80;66.50;;;;;;5069945;28;20041;-84
2023/06/27 11:50:31;;;;;;;5.72;1.20;;;22.70;67.10;;;;;;5069575;28;20048;-85
2023/06/27 11:52:57;;;;;;;6.72;1.42;;;22.60;66.80;;;;;;5052844;28;20040;-85
2023/06/27 11:55:24;;;;;;;7.20;1.40;;;22.50;67.30;;;;;;5052909;28;20037;-85
2023/06/27 11:57:55;;;;;;;6.65;1.02;;;22.40;67.10;;;;;;5070014;28;20494;-85
2023/06/27 12:00:25;;;;;;;9.90;1.57;;;22.30;67.50;;;;;;5069203;28;20037;-85
2023/06/27 12:02:53;;;;;;;6.55;1.13;;;22.20;68.00;;;;;;5071050;28;20051;-85
2023/06/27 12:05:20;;;;;;;7.82;1.45;;;22.10;68.70;;;;;;5069971;28;20047;-85
2023/06/27 12:08:08;;;;;;;6.63;1.50;;;22.10;68.60;;;;;;5069592;28;20040;-85
2023/06/27 12:10:50;;;;;;;7.22;1.58;;;22.10;68.70;;;;;;5069560;28;20050;-84
2023/06/27 12:13:15;;;;;;;5.68;1.00;;;22.10;68.30;;;;;;5069897;28;20090;-85
2023/06/27 12:15:45;;;;;;;5.97;1.50;;;22.10;69.00;;;;;;5053181;28;20575;-85
2023/06/27 12:18:22;;;;;;;6.78;1.45;;;22.20;68.50;;;;;;5069620;28;20037;-85
2023/06/27 12:20:49;;;;;;;7.22;1.67;;;22.20;68.80;;;;;;5052754;28;20046;-85
2023/06/27 12:23:15;;;;;;;7.68;1.50;;;22.30;68.90;;;;;;5069621;28;20126;-85
2023/06/27 12:25:41;;;;;;;10.98;1.98;;;22.30;69.40;;;;;;5069725;28;20072;-84
2023/06/27 12:28:07;;;;;;;8.57;1.60;;;22.40;69.90;;;;;;5053192;28;20080;-85
2023/06/27 12:30:33;;;;;;;7.10;1.60;;;22.40;69.90;;;;;;5052634;28;20145;-85
2023/06/27 12:33:00;;;;;;;7.93;1.52;;;22.30;69.80;;;;;;5069457;28;20537;-85
2023/06/27 12:35:25;;;;;;;6.55;1.58;;;22.30;69.60;;;;;;5069741;28;20041;-84
2023/06/27 12:37:51;;;;;;;6.72;1.40;;;22.30;70.40;;;;;;5069132;28;20397;-85
2023/06/27 12:40:20;;;;;;;8.10;1.25;;;22.50;70.90;;;;;;5052198;28;20036;-85
2023/06/27 12:42:45;;;;;;;5.85;1.23;;;22.60;70.50;;;;;;5052319;28;20101;-85